sensor_id;sensor_type;location;lat;lon;timestamp;P1;durP1;ratioP1;P2;durP2;ratioP2
57297;SDS011;43147;50.972;18.210;2023-09-07T00:00:13;15.80;;;13.70;;
57297;SDS011;43147;50.972;18.210;2023-09-07T00:02:40;14.20;;;12.70;;
57297;SDS011;43147;50.972;18.210;2023-09-07T00:05:06;14.80;;;13.40;;
57297;SDS011;43147;50.972;18.210;2023-09-07T00:07:32;15.10;;;13.60;;
57297;SDS011;43147;50.972;18.210;2023-09-07T00:09:59;15.70;;;13.10;;
57297;SDS011;43147;50.972;18.210;2023-09-07T00:12:25;17.90;;;13.60;;
57297;SDS011;43147;50.972;18.210;2023-09-07T00:14:54;15.00;;;13.60;;
57297;SDS011;43147;50.972;18.210;2023-09-07T00:17:20;11.10;;;7.20;;
57297;SDS011;43147;50.972;18.210;2023-09-07T00:19:47;14.30;;;12.70;;
57297;SDS011;43147;50.972;18.210;2023-09-07T00:22:14;16.50;;;13.80;;
57297;SDS011;43147;50.972;18.210;2023-09-07T00:24:44;15.10;;;13.50;;
57297;SDS011;43147;50.972;18.210;2023-09-07T00:27:10;14.60;;;13.10;;
57297;SDS011;43147;50.972;18.210;2023-09-07T00:29:39;15.30;;;12.70;;
57297;SDS011;43147;50.972;18.210;2023-09-07T00:32:05;14.80;;;13.10;;
57297;SDS011;43147;50.972;18.210;2023-09-07T00:34:31;14.20;;;12.80;;
57297;SDS011;43147;50.972;18.210;2023-09-07T00:36:57;15.40;;;12.00;;
57297;SDS011;43147;50.972;18.210;2023-09-07T00:39:22;16.30;;;13.20;;
57297;SDS011;43147;50.972;18.210;2023-09-07T00:41:48;16.20;;;8.90;;
57297;SDS011;43147;50.972;18.210;2023-09-07T00:44:14;18.40;;;12.90;;
57297;SDS011;43147;50.972;18.210;2023-09-07T00:46:40;18.10;;;12.60;;
57297;SDS011;43147;50.972;18.210;2023-09-07T00:49:07;13.20;;;11.90;;
57297;SDS011;43147;50.972;18.210;2023-09-07T00:51:32;11.80;;;7.30;;
57297;SDS011;43147;50.972;18.210;2023-09-07T00:53:58;13.30;;;12.00;;
57297;SDS011;43147;50.972;18.210;2023-09-07T00:56:27;14.20;;;12.70;;
57297;SDS011;43147;50.972;18.210;2023-09-07T00:58:53;14.20;;;7.80;;
57297;SDS011;43147;50.972;18.210;2023-09-07T01:01:25;19.10;;;13.20;;
57297;SDS011;43147;50.972;18.210;2023-09-07T01:03:51;14.60;;;13.10;;
57297;SDS011;43147;50.972;18.210;2023-09-07T01:06:28;14.00;;;12.50;;
57297;SDS011;43147;50.972;18.210;2023-09-07T01:08:56;18.00;;;13.10;;
57297;SDS011;43147;50.972;18.210;2023-09-07T01:11:23;15.20;;;13.60;;
57297;SDS011;43147;50.972;18.210;2023-09-07T01:13:49;17.70;;;8.90;;
57297;SDS011;43147;50.972;18.210;2023-09-07T01:16:17;16.30;;;14.60;;
57297;SDS011;43147;50.972;18.210;2023-09-07T01:18:45;16.60;;;15.00;;
57297;SDS011;43147;50.972;18.210;2023-09-07T01:21:11;18.20;;;15.00;;
57297;SDS011;43147;50.972;18.210;2023-09-07T01:23:37;17.90;;;16.10;;
57297;SDS011;43147;50.972;18.210;2023-09-07T01:26:06;17.90;;;15.40;;
57297;SDS011;43147;50.972;18.210;2023-09-07T01:28:32;16.80;;;14.90;;
57297;SDS011;43147;50.972;18.210;2023-09-07T01:30:57;17.70;;;15.60;;
57297;SDS011;43147;50.972;18.210;2023-09-07T01:33:23;17.20;;;14.40;;
57297;SDS011;43147;50.972;18.210;2023-09-07T01:35:49;17.00;;;15.20;;
57297;SDS011;43147;50.972;18.210;2023-09-07T01:38:14;16.10;;;14.30;;
57297;SDS011;43147;50.972;18.210;2023-09-07T01:40:39;16.80;;;14.60;;
57297;SDS011;43147;50.972;18.210;2023-09-07T01:43:05;18.60;;;14.00;;
57297;SDS011;43147;50.972;18.210;2023-09-07T01:45:31;16.00;;;14.40;;
57297;SDS011;43147;50.972;18.210;2023-09-07T01:47:57;16.40;;;14.50;;
57297;SDS011;43147;50.972;18.210;2023-09-07T01:50:24;15.90;;;14.10;;
57297;SDS011;43147;50.972;18.210;2023-09-07T01:52:51;16.70;;;15.00;;
57297;SDS011;43147;50.972;18.210;2023-09-07T01:55:16;17.70;;;8.90;;
57297;SDS011;43147;50.972;18.210;2023-09-07T01:57:42;16.90;;;15.10;;
57297;SDS011;43147;50.972;18.210;2023-09-07T02:00:09;17.10;;;15.30;;
57297;SDS011;43147;50.972;18.210;2023-09-07T02:02:35;18.80;;;16.00;;
57297;SDS011;43147;50.972;18.210;2023-09-07T02:05:01;10.90;;;8.30;;
57297;SDS011;43147;50.972;18.210;2023-09-07T02:07:27;19.60;;;16.40;;
57297;SDS011;43147;50.972;18.210;2023-09-07T02:09:53;16.20;;;14.60;;
57297;SDS011;43147;50.972;18.210;2023-09-07T02:12:18;17.90;;;16.10;;
57297;SDS011;43147;50.972;18.210;2023-09-07T02:14:44;18.00;;;15.50;;
57297;SDS011;43147;50.972;18.210;2023-09-07T02:17:09;17.30;;;15.40;;
57297;SDS011;43147;50.972;18.210;2023-09-07T02:19:35;12.30;;;8.50;;
57297;SDS011;43147;50.972;18.210;2023-09-07T02:22:00;17.00;;;15.10;;
57297;SDS011;43147;50.972;18.210;2023-09-07T02:24:26;21.80;;;16.90;;
57297;SDS011;43147;50.972;18.210;2023-09-07T02:26:52;19.20;;;17.20;;
57297;SDS011;43147;50.972;18.210;2023-09-07T02:29:17;18.20;;;16.10;;
57297;SDS011;43147;50.972;18.210;2023-09-07T02:31:43;20.90;;;17.30;;
57297;SDS011;43147;50.972;18.210;2023-09-07T02:34:08;20.10;;;17.40;;
57297;SDS011;43147;50.972;18.210;2023-09-07T02:36:34;19.20;;;16.80;;
57297;SDS011;43147;50.972;18.210;2023-09-07T02:39:03;19.30;;;16.80;;
57297;SDS011;43147;50.972;18.210;2023-09-07T02:41:28;21.10;;;17.40;;
57297;SDS011;43147;50.972;18.210;2023-09-07T02:43:56;20.40;;;18.40;;
57297;SDS011;43147;50.972;18.210;2023-09-07T02:46:22;19.90;;;17.50;;
57297;SDS011;43147;50.972;18.210;2023-09-07T02:48:47;12.00;;;9.00;;
57297;SDS011;43147;50.972;18.210;2023-09-07T02:51:13;18.70;;;16.10;;
57297;SDS011;43147;50.972;18.210;2023-09-07T02:53:39;18.80;;;16.80;;
57297;SDS011;43147;50.972;18.210;2023-09-07T02:56:05;19.00;;;17.00;;
57297;SDS011;43147;50.972;18.210;2023-09-07T02:58:32;21.70;;;9.10;;
57297;SDS011;43147;50.972;18.210;2023-09-07T03:00:58;24.40;;;17.40;;
57297;SDS011;43147;50.972;18.210;2023-09-07T03:03:26;20.90;;;18.40;;
57297;SDS011;43147;50.972;18.210;2023-09-07T03:05:51;16.10;;;11.20;;
57297;SDS011;43147;50.972;18.210;2023-09-07T03:08:17;20.10;;;17.40;;
57297;SDS011;43147;50.972;18.210;2023-09-07T03:10:42;20.40;;;17.80;;
57297;SDS011;43147;50.972;18.210;2023-09-07T03:13:09;18.40;;;16.40;;
57297;SDS011;43147;50.972;18.210;2023-09-07T03:15:35;14.40;;;9.50;;
57297;SDS011;43147;50.972;18.210;2023-09-07T03:18:01;17.30;;;15.30;;
57297;SDS011;43147;50.972;18.210;2023-09-07T03:20:26;12.60;;;9.60;;
57297;SDS011;43147;50.972;18.210;2023-09-07T03:22:52;18.00;;;16.30;;
57297;SDS011;43147;50.972;18.210;2023-09-07T03:25:17;19.20;;;17.20;;
57297;SDS011;43147;50.972;18.210;2023-09-07T03:27:43;19.60;;;17.10;;
57297;SDS011;43147;50.972;18.210;2023-09-07T03:30:09;19.30;;;17.20;;
57297;SDS011;43147;50.972;18.210;2023-09-07T03:32:35;20.60;;;17.20;;
57297;SDS011;43147;50.972;18.210;2023-09-07T03:35:02;21.50;;;10.20;;
57297;SDS011;43147;50.972;18.210;2023-09-07T03:37:32;13.20;;;9.50;;
57297;SDS011;43147;50.972;18.210;2023-09-07T03:39:58;20.50;;;18.50;;
57297;SDS011;43147;50.972;18.210;2023-09-07T03:42:23;15.80;;;11.50;;
57297;SDS011;43147;50.972;18.210;2023-09-07T03:44:49;21.40;;;18.70;;
57297;SDS011;43147;50.972;18.210;2023-09-07T03:47:14;25.40;;;17.80;;
57297;SDS011;43147;50.972;18.210;2023-09-07T03:49:41;17.50;;;10.70;;
57297;SDS011;43147;50.972;18.210;2023-09-07T03:52:07;22.90;;;18.60;;
57297;SDS011;43147;50.972;18.210;2023-09-07T03:54:34;28.40;;;17.90;;
57297;SDS011;43147;50.972;18.210;2023-09-07T03:57:00;25.50;;;17.70;;
57297;SDS011;43147;50.972;18.210;2023-09-07T03:59:27;19.60;;;17.60;;
57297;SDS011;43147;50.972;18.210;2023-09-07T04:01:53;25.70;;;17.40;;
57297;SDS011;43147;50.972;18.210;2023-09-07T04:04:20;15.70;;;9.00;;
57297;SDS011;43147;50.972;18.210;2023-09-07T04:06:48;23.10;;;16.60;;
57297;SDS011;43147;50.972;18.210;2023-09-07T04:09:14;21.00;;;16.70;;
57297;SDS011;43147;50.972;18.210;2023-09-07T04:11:40;20.20;;;17.40;;
57297;SDS011;43147;50.972;18.210;2023-09-07T04:14:08;22.40;;;17.00;;
57297;SDS011;43147;50.972;18.210;2023-09-07T04:16:34;19.50;;;16.20;;
57297;SDS011;43147;50.972;18.210;2023-09-07T04:18:59;16.50;;;10.00;;
57297;SDS011;43147;50.972;18.210;2023-09-07T04:21:25;18.20;;;16.10;;
57297;SDS011;43147;50.972;18.210;2023-09-07T04:23:51;21.00;;;15.80;;
57297;SDS011;43147;50.972;18.210;2023-09-07T04:26:16;19.40;;;15.80;;
57297;SDS011;43147;50.972;18.210;2023-09-07T04:28:42;19.00;;;16.20;;
57297;SDS011;43147;50.972;18.210;2023-09-07T04:31:07;19.00;;;16.00;;
57297;SDS011;43147;50.972;18.210;2023-09-07T04:33:33;18.00;;;15.50;;
57297;SDS011;43147;50.972;18.210;2023-09-07T04:36:12;24.00;;;16.30;;
57297;SDS011;43147;50.972;18.210;2023-09-07T04:38:39;15.40;;;7.80;;
57297;SDS011;43147;50.972;18.210;2023-09-07T04:41:08;17.60;;;15.30;;
57297;SDS011;43147;50.972;18.210;2023-09-07T04:43:35;11.90;;;9.20;;
57297;SDS011;43147;50.972;18.210;2023-09-07T04:46:01;18.50;;;16.10;;
57297;SDS011;43147;50.972;18.210;2023-09-07T04:48:26;20.30;;;16.90;;
57297;SDS011;43147;50.972;18.210;2023-09-07T04:51:02;13.70;;;9.40;;
57297;SDS011;43147;50.972;18.210;2023-09-07T04:53:30;24.00;;;15.40;;
57297;SDS011;43147;50.972;18.210;2023-09-07T04:55:57;17.90;;;16.00;;
57297;SDS011;43147;50.972;18.210;2023-09-07T04:58:23;20.30;;;15.50;;
57297;SDS011;43147;50.972;18.210;2023-09-07T05:00:49;19.80;;;15.60;;
57297;SDS011;43147;50.972;18.210;2023-09-07T05:03:14;19.80;;;15.60;;
57297;SDS011;43147;50.972;18.210;2023-09-07T05:05:41;22.10;;;14.90;;
57297;SDS011;43147;50.972;18.210;2023-09-07T05:08:07;21.00;;;14.20;;
57297;SDS011;43147;50.972;18.210;2023-09-07T05:10:33;22.00;;;14.30;;
57297;SDS011;43147;50.972;18.210;2023-09-07T05:12:59;20.50;;;14.00;;
57297;SDS011;43147;50.972;18.210;2023-09-07T05:15:25;16.50;;;13.80;;
57297;SDS011;43147;50.972;18.210;2023-09-07T05:17:51;24.20;;;14.10;;
57297;SDS011;43147;50.972;18.210;2023-09-07T05:20:17;19.40;;;12.70;;
57297;SDS011;43147;50.972;18.210;2023-09-07T05:22:43;18.50;;;12.80;;
57297;SDS011;43147;50.972;18.210;2023-09-07T05:25:09;17.50;;;13.60;;
57297;SDS011;43147;50.972;18.210;2023-09-07T05:27:35;24.60;;;14.10;;
57297;SDS011;43147;50.972;18.210;2023-09-07T05:30:02;22.40;;;13.10;;
57297;SDS011;43147;50.972;18.210;2023-09-07T05:32:28;16.60;;;12.90;;
57297;SDS011;43147;50.972;18.210;2023-09-07T05:34:54;17.70;;;12.80;;
57297;SDS011;43147;50.972;18.210;2023-09-07T05:37:19;16.10;;;11.80;;
57297;SDS011;43147;50.972;18.210;2023-09-07T05:39:45;17.40;;;11.50;;
57297;SDS011;43147;50.972;18.210;2023-09-07T05:42:10;17.30;;;12.40;;
57297;SDS011;43147;50.972;18.210;2023-09-07T05:44:37;17.40;;;12.20;;
57297;SDS011;43147;50.972;18.210;2023-09-07T05:47:04;12.70;;;11.40;;
57297;SDS011;43147;50.972;18.210;2023-09-07T05:49:30;15.00;;;10.10;;
57297;SDS011;43147;50.972;18.210;2023-09-07T05:51:55;13.00;;;9.30;;
57297;SDS011;43147;50.972;18.210;2023-09-07T05:54:21;18.00;;;8.90;;
57297;SDS011;43147;50.972;18.210;2023-09-07T05:56:47;14.40;;;8.80;;
57297;SDS011;43147;50.972;18.210;2023-09-07T05:59:12;21.20;;;8.50;;
57297;SDS011;43147;50.972;18.210;2023-09-07T06:01:38;12.60;;;7.20;;
57297;SDS011;43147;50.972;18.210;2023-09-07T06:04:04;19.00;;;10.50;;
57297;SDS011;43147;50.972;18.210;2023-09-07T06:06:30;18.00;;;8.80;;
57297;SDS011;43147;50.972;18.210;2023-09-07T06:08:55;28.00;;;9.70;;
57297;SDS011;43147;50.972;18.210;2023-09-07T06:11:21;11.80;;;6.20;;
57297;SDS011;43147;50.972;18.210;2023-09-07T06:13:46;9.80;;;5.90;;
57297;SDS011;43147;50.972;18.210;2023-09-07T06:16:12;6.80;;;5.60;;
57297;SDS011;43147;50.972;18.210;2023-09-07T06:18:38;9.00;;;6.20;;
57297;SDS011;43147;50.972;18.210;2023-09-07T06:21:04;10.30;;;5.90;;
57297;SDS011;43147;50.972;18.210;2023-09-07T06:23:31;9.90;;;5.70;;
57297;SDS011;43147;50.972;18.210;2023-09-07T06:25:57;7.80;;;5.60;;
57297;SDS011;43147;50.972;18.210;2023-09-07T06:28:22;6.40;;;5.50;;
57297;SDS011;43147;50.972;18.210;2023-09-07T06:30:48;8.00;;;6.00;;
57297;SDS011;43147;50.972;18.210;2023-09-07T06:33:13;10.20;;;6.50;;
57297;SDS011;43147;50.972;18.210;2023-09-07T06:35:39;7.80;;;5.40;;
57297;SDS011;43147;50.972;18.210;2023-09-07T06:38:04;12.80;;;5.70;;
57297;SDS011;43147;50.972;18.210;2023-09-07T06:40:30;6.50;;;5.70;;
57297;SDS011;43147;50.972;18.210;2023-09-07T06:42:56;8.90;;;5.90;;
57297;SDS011;43147;50.972;18.210;2023-09-07T06:45:22;8.00;;;5.80;;
57297;SDS011;43147;50.972;18.210;2023-09-07T06:47:49;11.40;;;6.60;;
57297;SDS011;43147;50.972;18.210;2023-09-07T06:50:15;11.00;;;6.40;;
57297;SDS011;43147;50.972;18.210;2023-09-07T06:52:41;10.40;;;7.20;;
57297;SDS011;43147;50.972;18.210;2023-09-07T06:55:07;15.00;;;6.70;;
57297;SDS011;43147;50.972;18.210;2023-09-07T06:57:32;12.70;;;6.40;;
57297;SDS011;43147;50.972;18.210;2023-09-07T06:59:59;15.30;;;6.60;;
57297;SDS011;43147;50.972;18.210;2023-09-07T07:02:25;8.90;;;6.20;;
57297;SDS011;43147;50.972;18.210;2023-09-07T07:04:50;8.00;;;6.20;;
57297;SDS011;43147;50.972;18.210;2023-09-07T07:07:16;13.10;;;6.70;;
57297;SDS011;43147;50.972;18.210;2023-09-07T07:09:42;8.50;;;5.70;;
57297;SDS011;43147;50.972;18.210;2023-09-07T07:12:08;12.40;;;6.90;;
57297;SDS011;43147;50.972;18.210;2023-09-07T07:14:34;9.40;;;7.10;;
57297;SDS011;43147;50.972;18.210;2023-09-07T07:16:59;11.70;;;7.10;;
57297;SDS011;43147;50.972;18.210;2023-09-07T07:19:27;8.40;;;7.20;;
57297;SDS011;43147;50.972;18.210;2023-09-07T07:21:53;8.70;;;7.50;;
57297;SDS011;43147;50.972;18.210;2023-09-07T07:24:19;8.70;;;7.40;;
57297;SDS011;43147;50.972;18.210;2023-09-07T07:26:45;10.90;;;7.10;;
57297;SDS011;43147;50.972;18.210;2023-09-07T07:29:11;8.40;;;7.40;;
57297;SDS011;43147;50.972;18.210;2023-09-07T07:31:39;9.20;;;7.40;;
57297;SDS011;43147;50.972;18.210;2023-09-07T07:34:04;9.50;;;7.20;;
57297;SDS011;43147;50.972;18.210;2023-09-07T07:36:30;8.60;;;6.90;;
57297;SDS011;43147;50.972;18.210;2023-09-07T07:38:56;11.00;;;7.10;;
57297;SDS011;43147;50.972;18.210;2023-09-07T07:41:22;10.70;;;6.30;;
57297;SDS011;43147;50.972;18.210;2023-09-07T07:43:47;8.40;;;6.20;;
57297;SDS011;43147;50.972;18.210;2023-09-07T07:46:13;11.60;;;7.30;;
57297;SDS011;43147;50.972;18.210;2023-09-07T07:48:41;9.80;;;7.00;;
57297;SDS011;43147;50.972;18.210;2023-09-07T07:51:07;9.10;;;6.70;;
57297;SDS011;43147;50.972;18.210;2023-09-07T07:53:34;8.60;;;6.50;;
57297;SDS011;43147;50.972;18.210;2023-09-07T07:56:00;8.90;;;6.70;;
57297;SDS011;43147;50.972;18.210;2023-09-07T07:58:26;14.20;;;7.50;;
57297;SDS011;43147;50.972;18.210;2023-09-07T08:00:51;9.30;;;7.80;;
57297;SDS011;43147;50.972;18.210;2023-09-07T08:03:17;10.30;;;7.20;;
57297;SDS011;43147;50.972;18.210;2023-09-07T08:05:42;7.70;;;6.90;;
57297;SDS011;43147;50.972;18.210;2023-09-07T08:08:08;8.60;;;6.80;;
57297;SDS011;43147;50.972;18.210;2023-09-07T08:10:34;10.60;;;7.20;;
57297;SDS011;43147;50.972;18.210;2023-09-07T08:13:02;8.70;;;6.30;;
57297;SDS011;43147;50.972;18.210;2023-09-07T08:15:28;10.50;;;7.10;;
57297;SDS011;43147;50.972;18.210;2023-09-07T08:17:54;7.70;;;6.90;;
57297;SDS011;43147;50.972;18.210;2023-09-07T08:20:19;8.00;;;6.90;;
57297;SDS011;43147;50.972;18.210;2023-09-07T08:22:45;12.40;;;7.20;;
57297;SDS011;43147;50.972;18.210;2023-09-07T08:25:11;13.20;;;7.50;;
57297;SDS011;43147;50.972;18.210;2023-09-07T08:27:40;11.70;;;7.50;;
57297;SDS011;43147;50.972;18.210;2023-09-07T08:30:14;6.90;;;6.00;;
57297;SDS011;43147;50.972;18.210;2023-09-07T08:32:42;7.90;;;6.40;;
57297;SDS011;43147;50.972;18.210;2023-09-07T08:35:09;12.80;;;6.60;;
57297;SDS011;43147;50.972;18.210;2023-09-07T08:37:38;9.60;;;5.80;;
57297;SDS011;43147;50.972;18.210;2023-09-07T08:40:04;14.80;;;6.40;;
57297;SDS011;43147;50.972;18.210;2023-09-07T08:42:35;7.60;;;6.00;;
57297;SDS011;43147;50.972;18.210;2023-09-07T08:45:02;8.40;;;6.00;;
57297;SDS011;43147;50.972;18.210;2023-09-07T08:47:32;7.30;;;6.40;;
57297;SDS011;43147;50.972;18.210;2023-09-07T08:50:02;8.70;;;6.00;;
57297;SDS011;43147;50.972;18.210;2023-09-07T08:52:31;6.20;;;5.60;;
57297;SDS011;43147;50.972;18.210;2023-09-07T08:54:57;8.30;;;5.90;;
57297;SDS011;43147;50.972;18.210;2023-09-07T08:57:24;10.00;;;6.20;;
57297;SDS011;43147;50.972;18.210;2023-09-07T08:59:50;8.20;;;5.50;;
57297;SDS011;43147;50.972;18.210;2023-09-07T09:02:16;9.20;;;6.40;;
57297;SDS011;43147;50.972;18.210;2023-09-07T09:04:42;8.50;;;6.50;;
57297;SDS011;43147;50.972;18.210;2023-09-07T09:07:07;8.00;;;6.30;;
57297;SDS011;43147;50.972;18.210;2023-09-07T09:09:33;13.60;;;9.20;;
57297;SDS011;43147;50.972;18.210;2023-09-07T09:12:08;10.90;;;5.90;;
57297;SDS011;43147;50.972;18.210;2023-09-07T09:14:35;8.60;;;6.00;;
57297;SDS011;43147;50.972;18.210;2023-09-07T09:17:01;8.50;;;6.20;;
57297;SDS011;43147;50.972;18.210;2023-09-07T09:19:30;8.00;;;5.90;;
57297;SDS011;43147;50.972;18.210;2023-09-07T09:21:57;6.90;;;6.10;;
57297;SDS011;43147;50.972;18.210;2023-09-07T09:24:23;10.40;;;6.10;;
57297;SDS011;43147;50.972;18.210;2023-09-07T09:26:49;11.70;;;6.30;;
57297;SDS011;43147;50.972;18.210;2023-09-07T09:29:15;8.70;;;6.20;;
57297;SDS011;43147;50.972;18.210;2023-09-07T09:31:40;10.10;;;6.30;;
57297;SDS011;43147;50.972;18.210;2023-09-07T09:34:06;7.50;;;5.90;;
57297;SDS011;43147;50.972;18.210;2023-09-07T09:36:32;9.80;;;5.40;;
57297;SDS011;43147;50.972;18.210;2023-09-07T09:38:59;8.70;;;4.80;;
57297;SDS011;43147;50.972;18.210;2023-09-07T09:41:25;8.30;;;5.40;;
57297;SDS011;43147;50.972;18.210;2023-09-07T09:43:51;6.90;;;4.70;;
57297;SDS011;43147;50.972;18.210;2023-09-07T09:46:18;8.60;;;4.90;;
57297;SDS011;43147;50.972;18.210;2023-09-07T09:48:44;7.90;;;4.50;;
57297;SDS011;43147;50.972;18.210;2023-09-07T09:51:10;6.00;;;4.30;;
57297;SDS011;43147;50.972;18.210;2023-09-07T09:53:36;6.50;;;4.50;;
57297;SDS011;43147;50.972;18.210;2023-09-07T09:56:02;4.30;;;3.90;;
57297;SDS011;43147;50.972;18.210;2023-09-07T09:58:28;6.50;;;3.90;;
57297;SDS011;43147;50.972;18.210;2023-09-07T10:00:55;6.10;;;4.60;;
57297;SDS011;43147;50.972;18.210;2023-09-07T10:03:24;5.00;;;4.20;;
57297;SDS011;43147;50.972;18.210;2023-09-07T10:05:56;12.50;;;4.10;;
57297;SDS011;43147;50.972;18.210;2023-09-07T10:08:21;5.70;;;3.80;;
57297;SDS011;43147;50.972;18.210;2023-09-07T10:10:53;6.30;;;3.90;;
57297;SDS011;43147;50.972;18.210;2023-09-07T10:13:28;5.70;;;3.70;;
57297;SDS011;43147;50.972;18.210;2023-09-07T10:18:35;5.10;;;3.80;;
57297;SDS011;43147;50.972;18.210;2023-09-07T10:21:02;6.70;;;4.20;;
57297;SDS011;43147;50.972;18.210;2023-09-07T10:26:14;4.90;;;3.60;;
57297;SDS011;43147;50.972;18.210;2023-09-07T10:28:41;6.10;;;3.70;;
57297;SDS011;43147;50.972;18.210;2023-09-07T10:31:12;15.50;;;4.10;;
57297;SDS011;43147;50.972;18.210;2023-09-07T10:33:41;4.80;;;3.60;;
57297;SDS011;43147;50.972;18.210;2023-09-07T10:36:07;6.70;;;4.20;;
57297;SDS011;43147;50.972;18.210;2023-09-07T10:38:36;7.20;;;3.90;;
57297;SDS011;43147;50.972;18.210;2023-09-07T10:41:03;4.00;;;3.60;;
57297;SDS011;43147;50.972;18.210;2023-09-07T10:43:30;4.30;;;3.90;;
57297;SDS011;43147;50.972;18.210;2023-09-07T10:45:57;5.50;;;3.50;;
57297;SDS011;43147;50.972;18.210;2023-09-07T10:48:30;12.20;;;4.20;;
57297;SDS011;43147;50.972;18.210;2023-09-07T10:50:56;7.70;;;4.70;;
57297;SDS011;43147;50.972;18.210;2023-09-07T10:53:29;7.70;;;4.20;;
57297;SDS011;43147;50.972;18.210;2023-09-07T10:55:57;5.90;;;4.00;;
57297;SDS011;43147;50.972;18.210;2023-09-07T10:58:28;7.90;;;4.30;;
57297;SDS011;43147;50.972;18.210;2023-09-07T11:01:01;6.60;;;4.80;;
57297;SDS011;43147;50.972;18.210;2023-09-07T11:03:28;6.40;;;3.90;;
57297;SDS011;43147;50.972;18.210;2023-09-07T11:06:04;5.60;;;4.00;;
57297;SDS011;43147;50.972;18.210;2023-09-07T11:08:33;6.50;;;4.00;;
57297;SDS011;43147;50.972;18.210;2023-09-07T11:11:00;6.80;;;4.20;;
57297;SDS011;43147;50.972;18.210;2023-09-07T11:13:28;4.80;;;3.90;;
57297;SDS011;43147;50.972;18.210;2023-09-07T11:15:54;7.90;;;3.90;;
57297;SDS011;43147;50.972;18.210;2023-09-07T11:18:21;6.40;;;4.40;;
57297;SDS011;43147;50.972;18.210;2023-09-07T11:20:48;4.80;;;4.10;;
57297;SDS011;43147;50.972;18.210;2023-09-07T11:23:14;8.10;;;4.40;;
57297;SDS011;43147;50.972;18.210;2023-09-07T11:25:41;7.10;;;4.00;;
57297;SDS011;43147;50.972;18.210;2023-09-07T11:28:08;4.30;;;3.50;;
57297;SDS011;43147;50.972;18.210;2023-09-07T11:30:34;7.70;;;4.00;;
57297;SDS011;43147;50.972;18.210;2023-09-07T11:33:04;5.80;;;4.00;;
57297;SDS011;43147;50.972;18.210;2023-09-07T11:35:31;6.40;;;4.00;;
57297;SDS011;43147;50.972;18.210;2023-09-07T11:37:56;6.30;;;3.50;;
57297;SDS011;43147;50.972;18.210;2023-09-07T11:40:24;6.20;;;4.10;;
57297;SDS011;43147;50.972;18.210;2023-09-07T11:42:49;10.90;;;4.70;;
57297;SDS011;43147;50.972;18.210;2023-09-07T11:45:17;5.90;;;4.30;;
57297;SDS011;43147;50.972;18.210;2023-09-07T11:47:44;8.10;;;4.10;;
57297;SDS011;43147;50.972;18.210;2023-09-07T11:50:10;7.10;;;4.50;;
57297;SDS011;43147;50.972;18.210;2023-09-07T11:52:35;5.50;;;3.90;;
57297;SDS011;43147;50.972;18.210;2023-09-07T11:55:01;6.20;;;4.10;;
57297;SDS011;43147;50.972;18.210;2023-09-07T11:57:29;7.10;;;4.50;;
57297;SDS011;43147;50.972;18.210;2023-09-07T11:59:55;6.60;;;4.50;;
57297;SDS011;43147;50.972;18.210;2023-09-07T12:02:23;5.20;;;4.40;;
57297;SDS011;43147;50.972;18.210;2023-09-07T12:04:48;5.10;;;3.80;;
57297;SDS011;43147;50.972;18.210;2023-09-07T12:07:14;8.00;;;3.80;;
57297;SDS011;43147;50.972;18.210;2023-09-07T12:09:40;5.00;;;3.90;;
57297;SDS011;43147;50.972;18.210;2023-09-07T12:12:05;7.80;;;4.30;;
57297;SDS011;43147;50.972;18.210;2023-09-07T12:14:31;4.70;;;4.00;;
57297;SDS011;43147;50.972;18.210;2023-09-07T12:16:57;5.60;;;4.60;;
57297;SDS011;43147;50.972;18.210;2023-09-07T12:19:23;9.50;;;3.90;;
57297;SDS011;43147;50.972;18.210;2023-09-07T12:21:48;6.20;;;5.00;;
57297;SDS011;43147;50.972;18.210;2023-09-07T12:24:14;8.20;;;5.50;;
57297;SDS011;43147;50.972;18.210;2023-09-07T12:26:39;5.00;;;4.50;;
57297;SDS011;43147;50.972;18.210;2023-09-07T12:29:05;8.40;;;4.40;;
57297;SDS011;43147;50.972;18.210;2023-09-07T12:31:31;6.70;;;4.40;;
57297;SDS011;43147;50.972;18.210;2023-09-07T12:33:57;10.80;;;5.30;;
57297;SDS011;43147;50.972;18.210;2023-09-07T12:36:23;6.70;;;4.60;;
57297;SDS011;43147;50.972;18.210;2023-09-07T12:38:49;5.60;;;5.10;;
57297;SDS011;43147;50.972;18.210;2023-09-07T12:41:15;6.10;;;4.60;;
57297;SDS011;43147;50.972;18.210;2023-09-07T12:43:41;7.70;;;4.80;;
57297;SDS011;43147;50.972;18.210;2023-09-07T12:46:08;7.80;;;5.70;;
57297;SDS011;43147;50.972;18.210;2023-09-07T12:48:34;7.40;;;6.20;;
57297;SDS011;43147;50.972;18.210;2023-09-07T12:51:03;5.00;;;4.30;;
57297;SDS011;43147;50.972;18.210;2023-09-07T12:53:29;9.90;;;5.20;;
57297;SDS011;43147;50.972;18.210;2023-09-07T12:55:54;5.70;;;5.00;;
57297;SDS011;43147;50.972;18.210;2023-09-07T12:58:20;5.50;;;4.70;;
57297;SDS011;43147;50.972;18.210;2023-09-07T13:00:45;8.00;;;4.60;;
57297;SDS011;43147;50.972;18.210;2023-09-07T13:03:13;8.90;;;5.40;;
57297;SDS011;43147;50.972;18.210;2023-09-07T13:05:43;10.30;;;6.40;;
57297;SDS011;43147;50.972;18.210;2023-09-07T13:08:09;5.70;;;4.90;;
57297;SDS011;43147;50.972;18.210;2023-09-07T13:10:35;7.20;;;4.40;;
57297;SDS011;43147;50.972;18.210;2023-09-07T13:13:01;5.40;;;4.00;;
57297;SDS011;43147;50.972;18.210;2023-09-07T13:15:27;7.60;;;5.10;;
57297;SDS011;43147;50.972;18.210;2023-09-07T13:17:52;5.40;;;4.40;;
57297;SDS011;43147;50.972;18.210;2023-09-07T13:20:18;6.50;;;4.60;;
57297;SDS011;43147;50.972;18.210;2023-09-07T13:22:45;5.20;;;4.20;;
57297;SDS011;43147;50.972;18.210;2023-09-07T13:25:11;7.10;;;4.80;;
57297;SDS011;43147;50.972;18.210;2023-09-07T13:27:37;7.60;;;4.80;;
57297;SDS011;43147;50.972;18.210;2023-09-07T13:30:06;6.40;;;5.10;;
57297;SDS011;43147;50.972;18.210;2023-09-07T13:32:34;11.10;;;4.80;;
57297;SDS011;43147;50.972;18.210;2023-09-07T13:35:00;8.70;;;5.00;;
57297;SDS011;43147;50.972;18.210;2023-09-07T13:37:26;6.40;;;4.90;;
57297;SDS011;43147;50.972;18.210;2023-09-07T13:39:51;7.00;;;4.20;;
57297;SDS011;43147;50.972;18.210;2023-09-07T13:42:16;7.70;;;3.80;;
57297;SDS011;43147;50.972;18.210;2023-09-07T13:44:42;10.00;;;4.00;;
57297;SDS011;43147;50.972;18.210;2023-09-07T13:47:10;5.40;;;4.10;;
57297;SDS011;43147;50.972;18.210;2023-09-07T13:49:36;10.00;;;4.00;;
57297;SDS011;43147;50.972;18.210;2023-09-07T13:52:01;5.00;;;4.10;;
57297;SDS011;43147;50.972;18.210;2023-09-07T13:54:28;7.30;;;4.30;;
57297;SDS011;43147;50.972;18.210;2023-09-07T13:56:54;6.80;;;3.60;;
57297;SDS011;43147;50.972;18.210;2023-09-07T13:59:19;8.70;;;4.10;;
57297;SDS011;43147;50.972;18.210;2023-09-07T14:01:45;4.90;;;4.00;;
57297;SDS011;43147;50.972;18.210;2023-09-07T14:04:10;5.00;;;4.20;;
57297;SDS011;43147;50.972;18.210;2023-09-07T14:06:36;6.50;;;4.50;;
57297;SDS011;43147;50.972;18.210;2023-09-07T14:09:02;6.10;;;4.20;;
57297;SDS011;43147;50.972;18.210;2023-09-07T14:11:27;5.20;;;4.00;;
57297;SDS011;43147;50.972;18.210;2023-09-07T14:13:53;7.00;;;4.80;;
57297;SDS011;43147;50.972;18.210;2023-09-07T14:16:20;5.70;;;4.20;;
57297;SDS011;43147;50.972;18.210;2023-09-07T14:18:46;6.80;;;5.10;;
57297;SDS011;43147;50.972;18.210;2023-09-07T14:21:13;5.10;;;4.60;;
57297;SDS011;43147;50.972;18.210;2023-09-07T14:23:39;5.20;;;4.70;;